Sunflower Gold — JD2460 — position and weather

sailwx.info

Track history (hours):
 
Tides and Currents Weather Stations Pressure Air Temp Water Temp Dewpoint Dewpoint Depression Visibility Wind Speed Wind Dir Waves Ship Positions

Sunflower Gold

Last reported at 2017-Jan-12 03:33 UTC. Time now 2017-Jan-21 04:25 UTC.
Position N 34°03' E 134°59'.
Warning: this ship's position is 9 days out of date.

Length 166 m; draft 5.8 m.

Type: Passenger vessel. MMSI: 431000331.

Date/timePositionNaut miles runAvg speedWind from/ knotsBaromVisibWave heightAir tempDewpointWater temp
2017-Jan-12 03:33N 34°03' E 134°59'2018.3
2017-Jan-12 02:26N 34°23' E 135°01'1617.8
2017-Jan-12 01:33N 34°34' E 135°15'8 8.1
2017-Jan-12 00:33N 34°42' E 135°17'0 0.0
2017-Jan-11 23:32N 34°42' E 135°17'0 0.0
2017-Jan-11 22:26N 34°42' E 135°17'0 0.0
2017-Jan-11 21:34N 34°42' E 135°17'1312.5
2017-Jan-11 20:33N 34°35' E 135°04'9 0.3
2017-Jan-10 11:18N 34°36' E 134°54'1419.0
2017-Jan-10 10:33N 34°36' E 135°11'7 7.1
2017-Jan-10 09:33N 34°42' E 135°17'0 0.0
2017-Jan-10 08:31N 34°42' E 135°17'0 0.0
2017-Jan-10 07:31N 34°42' E 135°17'0 0.0
2017-Jan-10 06:31N 34°42' E 135°17'0 0.0
2017-Jan-10 05:31N 34°42' E 135°17'0 0.0
2017-Jan-10 04:31N 34°42' E 135°17'0 0.0
2017-Jan-10 03:25N 34°42' E 135°17'0 0.0
2017-Jan-10 02:31N 34°42' E 135°17'0 0.0
2017-Jan-10 01:31N 34°42' E 135°17'0 0.0
2017-Jan-10 00:31N 34°42' E 135°17'0 0.0
2017-Jan-09 23:31N 34°42' E 135°17'0 0.0
2017-Jan-09 22:25N 34°42' E 135°17'0 0.0
2017-Jan-09 21:33N 34°42' E 135°17'1313.0
2017-Jan-09 20:33N 34°35' E 135°03'8 0.2
2017-Jan-08 11:18N 34°36' E 134°54'1419.0
2017-Jan-08 10:33N 34°36' E 135°11'7 7.2
2017-Jan-08 09:32N 34°42' E 135°17'0 0.0
2017-Jan-08 08:32N 34°42' E 135°17'0 0.0
2017-Jan-08 07:32N 34°42' E 135°17'0 0.0
2017-Jan-08 06:32N 34°42' E 135°17'0 0.0
2017-Jan-08 05:26N 34°42' E 135°17'0 0.0
2017-Jan-08 04:32N 34°42' E 135°17'0 0.0
2017-Jan-08 03:32N 34°42' E 135°17'0 0.0
2017-Jan-08 02:32N 34°42' E 135°17'0 0.0
2017-Jan-08 01:32N 34°42' E 135°17'0 0.0
2017-Jan-08 00:32N 34°42' E 135°17'0 0.0
2017-Jan-07 23:26N 34°42' E 135°17'2 2.3
2017-Jan-07 22:33N 34°40' E 135°18'1515.0
2017-Jan-07 21:34N 34°37' E 135°01'9 0.3
2017-Jan-06 12:24N 34°34' E 134°51'1416.8
2017-Jan-06 11:33N 34°36' E 135°08'10 9.1
2017-Jan-06 10:29N 34°42' E 135°17'0 0.0
2017-Jan-06 09:29N 34°42' E 135°17'0 0.0
2017-Jan-06 08:29N 34°42' E 135°17'0 0.0
2017-Jan-06 07:29N 34°42' E 135°17'0 0.0
2017-Jan-06 06:29N 34°42' E 135°17'0 0.0
2017-Jan-06 05:23N 34°42' E 135°17'0 0.0
2017-Jan-06 04:29N 34°42' E 135°17'0 0.0
2017-Jan-06 03:29N 34°42' E 135°17'0 0.0
2017-Jan-06 02:29N 34°42' E 135°17'0 0.0
2017-Jan-06 01:29N 34°42' E 135°17'0 0.0
2017-Jan-06 00:29N 34°42' E 135°17'0 0.0
2017-Jan-05 23:29N 34°42' E 135°17'0 0.0
2017-Jan-05 22:29N 34°42' E 135°17'0 0.1
2017-Jan-05 21:33N 34°42' E 135°17'1313.0
2017-Jan-05 20:33N 34°36' E 135°03'10 0.3
2017-Jan-04 11:33N 34°35' E 134°51'1717.6
2017-Jan-04 10:34N 34°36' E 135°12'7 7.1
2017-Jan-04 09:33N 34°42' E 135°17'0 0.0
2017-Jan-04 08:30N 34°42' E 135°17'0 0.0
2017-Jan-04 07:24N 34°42' E 135°17'0 0.0
2017-Jan-04 06:30N 34°42' E 135°17'0 0.0
2017-Jan-04 05:18N 34°42' E 135°17'0 0.0
2017-Jan-04 04:24N 34°42' E 135°17'0 0.0
2017-Jan-04 03:24N 34°42' E 135°17'0 0.0
2017-Jan-04 02:24N 34°42' E 135°17'0 0.0
2017-Jan-04 01:24N 34°42' E 135°17'0 0.0
2017-Jan-04 00:24N 34°42' E 135°17'0 0.0
2017-Jan-03 23:24N 34°42' E 135°17'0 0.0
2017-Jan-03 22:18N 34°42' E 135°17'0 0.0
2017-Jan-03 21:33N 34°42' E 135°17'1010.4
2017-Jan-03 20:34N 34°35' E 135°08'9 0.3
2017-Jan-02 12:33N 34°37' E 134°57'1817.8
2017-Jan-02 11:33N 34°39' E 135°18'3 2.6
2017-Jan-02 10:28N 34°42' E 135°17'0 0.0
2017-Jan-02 09:28N 34°42' E 135°17'0 0.0
2017-Jan-02 08:28N 34°42' E 135°17'0 0.0
2017-Jan-02 07:28N 34°42' E 135°17'0 0.0
2017-Jan-02 06:28N 34°42' E 135°17'0 0.0
2017-Jan-02 05:22N 34°42' E 135°17'0 0.0
2017-Jan-02 04:22N 34°42' E 135°17'  
Track history (hours):
 
Tides and Currents Weather Stations Pressure Air Temp Water Temp Dewpoint Dewpoint Depression Visibility Wind Speed Wind Dir Waves Ship Positions

Sunflower Gold

Last reported at 2017-Jan-12 03:33 UTC. Time now 2017-Jan-21 04:25 UTC.
Position N 34°03' E 134°59'.
Warning: this ship's position is 9 days out of date.

Length 166 m; draft 5.8 m.

Type: Passenger vessel. MMSI: 431000331.

Date/timePositionNaut miles runAvg speedWind from/ knotsBaromVisibWave heightAir tempDewpointWater temp
2017-Jan-12 03:33N 34°03' E 134°59'2018.3
2017-Jan-12 02:26N 34°23' E 135°01'1617.8
2017-Jan-12 01:33N 34°34' E 135°15'8 8.1
2017-Jan-12 00:33N 34°42' E 135°17'0 0.0
2017-Jan-11 23:32N 34°42' E 135°17'0 0.0
2017-Jan-11 22:26N 34°42' E 135°17'0 0.0
2017-Jan-11 21:34N 34°42' E 135°17'1312.5
2017-Jan-11 20:33N 34°35' E 135°04'9 0.3
2017-Jan-10 11:18N 34°36' E 134°54'1419.0
2017-Jan-10 10:33N 34°36' E 135°11'7 7.1
2017-Jan-10 09:33N 34°42' E 135°17'0 0.0
2017-Jan-10 08:31N 34°42' E 135°17'0 0.0
2017-Jan-10 07:31N 34°42' E 135°17'0 0.0
2017-Jan-10 06:31N 34°42' E 135°17'0 0.0
2017-Jan-10 05:31N 34°42' E 135°17'0 0.0
2017-Jan-10 04:31N 34°42' E 135°17'0 0.0
2017-Jan-10 03:25N 34°42' E 135°17'0 0.0
2017-Jan-10 02:31N 34°42' E 135°17'0 0.0
2017-Jan-10 01:31N 34°42' E 135°17'0 0.0
2017-Jan-10 00:31N 34°42' E 135°17'0 0.0
2017-Jan-09 23:31N 34°42' E 135°17'0 0.0
2017-Jan-09 22:25N 34°42' E 135°17'0 0.0
2017-Jan-09 21:33N 34°42' E 135°17'1313.0
2017-Jan-09 20:33N 34°35' E 135°03'8 0.2
2017-Jan-08 11:18N 34°36' E 134°54'1419.0
2017-Jan-08 10:33N 34°36' E 135°11'7 7.2
2017-Jan-08 09:32N 34°42' E 135°17'0 0.0
2017-Jan-08 08:32N 34°42' E 135°17'0 0.0
2017-Jan-08 07:32N 34°42' E 135°17'0 0.0
2017-Jan-08 06:32N 34°42' E 135°17'0 0.0
2017-Jan-08 05:26N 34°42' E 135°17'0 0.0
2017-Jan-08 04:32N 34°42' E 135°17'0 0.0
2017-Jan-08 03:32N 34°42' E 135°17'0 0.0
2017-Jan-08 02:32N 34°42' E 135°17'0 0.0
2017-Jan-08 01:32N 34°42' E 135°17'0 0.0
2017-Jan-08 00:32N 34°42' E 135°17'0 0.0
2017-Jan-07 23:26N 34°42' E 135°17'2 2.3
2017-Jan-07 22:33N 34°40' E 135°18'1515.0
2017-Jan-07 21:34N 34°37' E 135°01'9 0.3
2017-Jan-06 12:24N 34°34' E 134°51'1416.8
2017-Jan-06 11:33N 34°36' E 135°08'10 9.1
2017-Jan-06 10:29N 34°42' E 135°17'0 0.0
2017-Jan-06 09:29N 34°42' E 135°17'0 0.0
2017-Jan-06 08:29N 34°42' E 135°17'0 0.0
2017-Jan-06 07:29N 34°42' E 135°17'0 0.0
2017-Jan-06 06:29N 34°42' E 135°17'0 0.0
2017-Jan-06 05:23N 34°42' E 135°17'0 0.0
2017-Jan-06 04:29N 34°42' E 135°17'0 0.0
2017-Jan-06 03:29N 34°42' E 135°17'0 0.0
2017-Jan-06 02:29N 34°42' E 135°17'0 0.0
2017-Jan-06 01:29N 34°42' E 135°17'0 0.0
2017-Jan-06 00:29N 34°42' E 135°17'0 0.0
2017-Jan-05 23:29N 34°42' E 135°17'0 0.0
2017-Jan-05 22:29N 34°42' E 135°17'0 0.1
2017-Jan-05 21:33N 34°42' E 135°17'1313.0
2017-Jan-05 20:33N 34°36' E 135°03'10 0.3
2017-Jan-04 11:33N 34°35' E 134°51'1717.6
2017-Jan-04 10:34N 34°36' E 135°12'7 7.1
2017-Jan-04 09:33N 34°42' E 135°17'0 0.0
2017-Jan-04 08:30N 34°42' E 135°17'0 0.0
2017-Jan-04 07:24N 34°42' E 135°17'0 0.0
2017-Jan-04 06:30N 34°42' E 135°17'0 0.0
2017-Jan-04 05:18N 34°42' E 135°17'0 0.0
2017-Jan-04 04:24N 34°42' E 135°17'0 0.0
2017-Jan-04 03:24N 34°42' E 135°17'0 0.0
2017-Jan-04 02:24N 34°42' E 135°17'0 0.0
2017-Jan-04 01:24N 34°42' E 135°17'0 0.0
2017-Jan-04 00:24N 34°42' E 135°17'0 0.0
2017-Jan-03 23:24N 34°42' E 135°17'0 0.0
2017-Jan-03 22:18N 34°42' E 135°17'0 0.0
2017-Jan-03 21:33N 34°42' E 135°17'1010.4
2017-Jan-03 20:34N 34°35' E 135°08'9 0.3
2017-Jan-02 12:33N 34°37' E 134°57'1817.8
2017-Jan-02 11:33N 34°39' E 135°18'3 2.6
2017-Jan-02 10:28N 34°42' E 135°17'0 0.0
2017-Jan-02 09:28N 34°42' E 135°17'0 0.0
2017-Jan-02 08:28N 34°42' E 135°17'0 0.0
2017-Jan-02 07:28N 34°42' E 135°17'0 0.0
2017-Jan-02 06:28N 34°42' E 135°17'0 0.0
2017-Jan-02 05:22N 34°42' E 135°17'0 0.0
2017-Jan-02 04:22N 34°42' E 135°17'  

Dump ship's entire track history